Time;durP1;ratioP1;P1;durP2;ratioP2;P2;SDS_P1;SDS_P2;PMS_P1;PMS_P2;Temp;Humidity;BMP_temperature;BMP_pressure;BME280_temperature;BME280_humidity;BME280_pressure;Samples;Min_cycle;Max_cycle;Signal;HPM_P1;HPM_P2
2021/07/03 00:00:59;;;;;;;9.90;7.50;;;15.40;99.90;;;;;;5013025;28;20667;-60
2021/07/03 00:03:26;;;;;;;9.70;6.97;;;15.40;99.90;;;;;;5012786;28;20203;-61
2021/07/03 00:05:52;;;;;;;9.27;7.30;;;15.40;99.90;;;;;;5012948;28;20214;-61
2021/07/03 00:08:21;;;;;;;8.07;6.83;;;15.30;99.90;;;;;;5013079;28;20207;-60
2021/07/03 00:10:47;;;;;;;9.53;7.53;;;15.30;99.90;;;;;;5013101;28;20219;-59
2021/07/03 00:13:14;;;;;;;8.93;6.90;;;15.30;99.90;;;;;;5012856;28;20207;-59
2021/07/03 00:15:41;;;;;;;8.67;6.73;;;15.30;99.90;;;;;;5012690;28;20234;-59
2021/07/03 00:18:07;;;;;;;8.80;7.20;;;15.20;99.90;;;;;;5012705;28;20595;-59
2021/07/03 00:20:34;;;;;;;8.57;6.83;;;15.20;99.90;;;;;;5012644;28;20298;-59
2021/07/03 00:23:01;;;;;;;8.50;6.87;;;15.20;99.90;;;;;;5013035;28;20301;-59
2021/07/03 00:25:29;;;;;;;8.53;6.90;;;15.20;99.90;;;;;;5012767;28;20229;-59
2021/07/03 00:27:56;;;;;;;12.03;7.03;;;15.20;99.90;;;;;;5012709;28;20209;-59
2021/07/03 00:30:23;;;;;;;9.93;7.10;;;15.20;99.90;;;;;;5012615;28;20207;-59
2021/07/03 00:32:49;;;;;;;9.73;7.13;;;15.20;99.90;;;;;;5013043;28;20207;-59
2021/07/03 00:35:16;;;;;;;7.80;7.00;;;15.20;99.90;;;;;;5012233;28;20234;-59
2021/07/03 00:37:43;;;;;;;10.17;7.00;;;15.20;99.90;;;;;;5012524;28;20257;-59
2021/07/03 00:40:11;;;;;;;10.80;6.87;;;15.20;99.90;;;;;;5012217;28;20679;-59
2021/07/03 00:42:39;;;;;;;8.80;7.33;;;15.20;99.90;;;;;;5012359;28;20206;-59
2021/07/03 00:45:08;;;;;;;9.47;7.20;;;15.20;99.90;;;;;;5012027;28;20253;-59
2021/07/03 00:47:35;;;;;;;8.83;6.77;;;15.20;99.90;;;;;;5012133;28;20214;-59
2021/07/03 00:50:02;;;;;;;9.17;6.67;;;15.10;99.90;;;;;;5012260;28;20215;-59
2021/07/03 00:52:29;;;;;;;8.57;7.30;;;15.10;99.90;;;;;;5012323;28;20222;-59
2021/07/03 00:54:55;;;;;;;9.10;7.33;;;15.10;99.90;;;;;;5012099;28;20223;-59
2021/07/03 00:57:22;;;;;;;12.37;7.20;;;15.10;99.90;;;;;;5012142;28;20226;-59
2021/07/03 00:59:50;;;;;;;9.27;7.57;;;15.00;99.90;;;;;;5012220;28;20214;-59
2021/07/03 01:02:18;;;;;;;7.93;7.13;;;15.00;99.90;;;;;;5012072;28;20607;-59
2021/07/03 01:04:46;;;;;;;9.47;7.30;;;15.10;99.90;;;;;;5011790;28;20238;-59
2021/07/03 01:07:13;;;;;;;9.37;7.27;;;15.10;99.90;;;;;;5012164;28;20206;-59
2021/07/03 01:09:40;;;;;;;9.57;7.13;;;15.10;99.90;;;;;;5011727;28;20207;-59
2021/07/03 01:12:09;;;;;;;10.10;7.37;;;15.10;99.90;;;;;;5011878;28;20211;-58
2021/07/03 01:14:41;;;;;;;8.97;7.20;;;15.10;99.90;;;;;;5011479;28;20285;-59
2021/07/03 01:17:10;;;;;;;8.70;7.70;;;15.10;99.90;;;;;;5011768;28;20615;-58
2021/07/03 01:19:36;;;;;;;9.50;7.97;;;15.10;99.90;;;;;;5011764;28;20651;-59
2021/07/03 01:22:06;;;;;;;8.80;7.40;;;15.20;99.90;;;;;;5011269;28;20206;-59
2021/07/03 01:24:33;;;;;;;8.63;7.10;;;15.20;99.90;;;;;;5011345;28;20866;-58
2021/07/03 01:27:00;;;;;;;9.43;7.67;;;15.10;99.90;;;;;;5011608;28;20315;-59
2021/07/03 01:29:28;;;;;;;9.60;7.57;;;15.20;99.90;;;;;;5011307;28;20269;-59
2021/07/03 01:31:58;;;;;;;11.47;8.00;;;15.10;99.90;;;;;;5011638;28;20203;-58
2021/07/03 01:34:27;;;;;;;8.77;6.83;;;15.10;99.90;;;;;;5011312;28;20237;-58
2021/07/03 01:36:54;;;;;;;8.73;6.73;;;15.10;99.90;;;;;;5011352;28;20250;-59
2021/07/03 01:39:23;;;;;;;10.40;7.53;;;15.10;99.90;;;;;;5011216;28;20214;-59
2021/07/03 01:41:51;;;;;;;8.93;7.57;;;15.10;99.90;;;;;;5011206;28;20218;-59
2021/07/03 01:44:23;;;;;;;11.70;8.00;;;15.10;99.90;;;;;;5011376;28;20238;-58
2021/07/03 01:46:50;;;;;;;11.20;7.23;;;15.00;99.90;;;;;;5011398;28;20682;-59
2021/07/03 01:49:17;;;;;;;10.83;7.27;;;15.00;99.90;;;;;;5011283;28;20557;-59
2021/07/03 01:51:44;;;;;;;9.80;7.70;;;15.00;99.90;;;;;;5011231;28;20211;-59
2021/07/03 01:54:11;;;;;;;9.37;7.10;;;14.90;99.90;;;;;;5011034;28;20231;-58
2021/07/03 01:56:42;;;;;;;8.87;7.77;;;15.00;99.90;;;;;;5011099;28;20219;-58
2021/07/03 01:59:08;;;;;;;9.63;7.43;;;15.00;99.90;;;;;;5011259;28;20203;-59
2021/07/03 02:01:35;;;;;;;8.77;7.10;;;14.90;99.90;;;;;;5011273;28;20203;-59
2021/07/03 02:04:02;;;;;;;7.27;6.50;;;14.90;99.90;;;;;;5010902;28;20749;-59
2021/07/03 02:06:29;;;;;;;8.23;7.37;;;14.90;99.90;;;;;;5011070;28;20702;-60
2021/07/03 02:08:56;;;;;;;7.80;7.00;;;14.80;99.90;;;;;;5010920;28;20203;-59
2021/07/03 02:11:23;;;;;;;11.60;6.87;;;14.80;99.90;;;;;;5011362;28;20210;-60
2021/07/03 02:13:51;;;;;;;7.50;6.70;;;14.80;99.90;;;;;;5011254;28;20237;-59
2021/07/03 02:16:18;;;;;;;9.50;6.37;;;14.70;99.90;;;;;;5010922;28;20609;-60
2021/07/03 02:18:44;;;;;;;7.60;6.53;;;14.70;99.90;;;;;;5010894;28;20670;-60
2021/07/03 02:21:11;;;;;;;8.70;7.23;;;14.60;99.90;;;;;;5011081;28;20234;-60
2021/07/03 02:23:38;;;;;;;8.20;7.00;;;14.60;99.90;;;;;;5010706;28;20230;-59
2021/07/03 02:26:04;;;;;;;8.50;7.00;;;14.60;99.90;;;;;;5011128;28;20203;-61
2021/07/03 02:28:31;;;;;;;8.53;7.33;;;14.50;99.90;;;;;;5011163;28;20218;-60
2021/07/03 02:30:59;;;;;;;7.60;6.67;;;14.50;99.90;;;;;;5011263;28;20211;-59
2021/07/03 02:33:26;;;;;;;7.87;6.97;;;14.50;99.90;;;;;;5011042;28;20215;-60
2021/07/03 02:35:53;;;;;;;8.00;7.10;;;14.50;99.90;;;;;;5014877;28;20210;-60
2021/07/03 02:38:19;;;;;;;9.20;7.13;;;14.50;99.90;;;;;;5014861;28;20280;-60
2021/07/03 02:40:46;;;;;;;8.03;7.23;;;14.50;99.90;;;;;;5015017;28;20302;-59
2021/07/03 02:43:13;;;;;;;9.20;6.87;;;14.50;99.90;;;;;;5014543;28;20678;-60
2021/07/03 02:45:40;;;;;;;8.07;6.67;;;14.40;99.90;;;;;;5014520;28;20211;-59
2021/07/03 02:48:08;;;;;;;9.47;7.43;;;14.40;99.90;;;;;;5014278;28;20690;-59
2021/07/03 02:50:35;;;;;;;9.37;6.83;;;14.30;99.90;;;;;;5014229;28;20697;-60
2021/07/03 02:53:02;;;;;;;8.73;7.10;;;14.20;99.90;;;;;;5014452;28;20251;-59
2021/07/03 02:55:29;;;;;;;8.07;6.80;;;14.20;99.90;;;;;;5014275;28;20234;-60
2021/07/03 02:57:56;;;;;;;11.33;7.37;;;14.20;99.90;;;;;;5014055;28;20502;-59
2021/07/03 03:00:22;;;;;;;8.50;7.30;;;14.10;99.90;;;;;;5014264;28;20604;-60
2021/07/03 03:02:49;;;;;;;8.50;7.07;;;14.10;99.90;;;;;;5014161;28;20218;-59
2021/07/03 03:05:18;;;;;;;8.23;7.20;;;14.00;99.90;;;;;;5013938;28;20238;-60
2021/07/03 03:07:45;;;;;;;9.77;7.57;;;14.00;99.90;;;;;;5014240;28;20690;-59
2021/07/03 03:10:14;;;;;;;8.73;7.27;;;14.00;99.90;;;;;;5014269;28;20211;-59
2021/07/03 03:12:41;;;;;;;12.43;7.57;;;14.00;99.90;;;;;;5014443;28;20204;-59
2021/07/03 03:15:10;;;;;;;10.07;7.03;;;14.00;99.90;;;;;;5013947;28;20222;-59
2021/07/03 03:17:37;;;;;;;8.17;7.00;;;14.00;99.90;;;;;;5013913;28;20229;-60
2021/07/03 03:20:06;;;;;;;10.13;7.23;;;13.90;99.90;;;;;;5013887;28;20249;-59
2021/07/03 03:22:34;;;;;;;10.60;7.20;;;14.00;99.90;;;;;;5013877;28;20214;-60
2021/07/03 03:25:01;;;;;;;8.50;6.70;;;14.00;99.90;;;;;;5013776;28;20254;-59
2021/07/03 03:27:28;;;;;;;11.20;7.43;;;13.90;99.90;;;;;;5013978;28;20611;-60
2021/07/03 03:29:55;;;;;;;10.37;7.43;;;13.90;99.90;;;;;;5013894;28;20203;-59
2021/07/03 03:32:21;;;;;;;12.83;7.43;;;13.90;99.90;;;;;;5013706;28;20218;-59
2021/07/03 03:34:48;;;;;;;10.07;7.30;;;13.90;99.90;;;;;;5013704;28;20227;-60
2021/07/03 03:37:15;;;;;;;8.23;7.33;;;13.80;99.90;;;;;;5013292;28;20711;-59
2021/07/03 03:39:43;;;;;;;8.37;7.23;;;13.80;99.90;;;;;;5013315;28;20249;-59
2021/07/03 03:42:10;;;;;;;8.57;6.77;;;13.90;99.90;;;;;;5013525;28;20215;-60
2021/07/03 03:44:36;;;;;;;8.03;6.90;;;13.80;99.90;;;;;;5012980;28;20223;-60
2021/07/03 03:47:03;;;;;;;9.60;7.03;;;13.80;99.90;;;;;;5013584;28;20207;-60
2021/07/03 03:49:30;;;;;;;13.10;7.57;;;13.90;99.90;;;;;;5013113;28;20211;-60
2021/07/03 03:51:57;;;;;;;9.57;7.13;;;13.90;99.90;;;;;;5013557;28;20217;-60
2021/07/03 03:54:24;;;;;;;10.10;7.70;;;14.00;99.90;;;;;;5013050;28;20227;-60
2021/07/03 03:57:21;;;;;;;7.70;6.90;;;14.00;99.90;;;;;;5013083;28;20264;-59
2021/07/03 03:59:38;;;;;;;8.30;7.40;;;14.10;99.90;;;;;;5012869;28;20264;-59
2021/07/03 04:02:06;;;;;;;12.40;7.30;;;14.20;99.90;;;;;;5013284;28;20210;-58
2021/07/03 04:04:33;;;;;;;8.10;7.30;;;14.20;99.90;;;;;;5044482;22;20222;-58
2021/07/03 04:06:59;;;;;;;9.87;7.33;;;14.10;99.90;;;;;;5032691;28;20202;-58
2021/07/03 04:09:26;;;;;;;8.20;7.40;;;14.20;99.90;;;;;;5032543;28;20206;-58
2021/07/03 04:11:55;;;;;;;9.33;7.30;;;14.20;99.90;;;;;;5032434;28;20598;-58
2021/07/03 04:14:22;;;;;;;7.60;6.53;;;14.20;99.90;;;;;;5032447;28;20257;-58
2021/07/03 04:16:49;;;;;;;8.50;7.27;;;14.30;99.90;;;;;;5032459;28;20230;-58
2021/07/03 04:19:16;;;;;;;8.70;7.67;;;14.30;99.90;;;;;;5032245;28;20279;-58
2021/07/03 04:21:42;;;;;;;8.27;7.37;;;14.40;99.90;;;;;;5032406;28;20202;-58
2021/07/03 04:24:09;;;;;;;8.90;7.57;;;14.40;99.90;;;;;;5032026;28;20740;-58
2021/07/03 04:26:36;;;;;;;11.10;7.63;;;14.40;99.90;;;;;;5032290;28;20210;-58
2021/07/03 04:29:04;;;;;;;10.27;8.40;;;14.50;99.90;;;;;;5032346;28;20213;-58
2021/07/03 04:31:32;;;;;;;10.57;8.00;;;14.60;99.90;;;;;;5032094;28;20688;-59
2021/07/03 04:33:58;;;;;;;10.67;7.50;;;14.70;99.90;;;;;;5031967;28;20229;-58
2021/07/03 04:36:25;;;;;;;9.90;7.83;;;14.90;99.90;;;;;;5031982;28;20202;-58
2021/07/03 04:38:52;;;;;;;9.07;6.67;;;15.10;99.90;;;;;;5032006;28;20267;-59
2021/07/03 04:41:19;;;;;;;8.60;6.90;;;15.30;99.90;;;;;;5032094;28;20210;-58
2021/07/03 04:43:45;;;;;;;8.47;7.03;;;15.50;99.90;;;;;;5031958;28;20210;-59
2021/07/03 04:46:13;;;;;;;10.07;6.93;;;15.60;99.90;;;;;;5032197;28;20206;-59
2021/07/03 04:48:40;;;;;;;8.10;7.20;;;15.80;99.90;;;;;;5031712;28;20214;-59
2021/07/03 04:51:07;;;;;;;11.03;6.87;;;16.10;99.90;;;;;;5031888;28;20205;-59
2021/07/03 04:53:33;;;;;;;7.10;6.40;;;16.50;99.90;;;;;;5031595;28;20210;-59
2021/07/03 04:56:00;;;;;;;7.13;6.33;;;17.30;99.90;;;;;;5031607;28;20253;-59
2021/07/03 04:58:27;;;;;;;7.75;6.03;;;18.50;99.90;;;;;;5031673;28;20230;-59
2021/07/03 05:00:54;;;;;;;8.68;4.95;;;20.00;99.90;;;;;;5031670;28;20579;-59
2021/07/03 05:03:22;;;;;;;6.22;5.40;;;21.60;99.90;;;;;;5031645;28;20206;-59
2021/07/03 05:05:48;;;;;;;5.72;5.20;;;22.80;99.90;;;;;;5031442;28;20325;-59
2021/07/03 05:08:15;;;;;;;7.25;5.22;;;23.50;99.90;;;;;;5031304;28;20586;-60
2021/07/03 05:10:42;;;;;;;5.35;4.85;;;23.90;99.90;;;;;;5031665;28;20228;-60
2021/07/03 05:13:09;;;;;;;7.18;5.60;;;24.10;99.90;;;;;;5031394;28;20213;-60
2021/07/03 05:15:35;;;;;;;5.57;5.03;;;24.50;99.90;;;;;;5031130;28;20844;-60
2021/07/03 05:18:03;;;;;;;5.80;5.05;;;25.30;99.90;;;;;;5031161;28;20229;-60
2021/07/03 05:20:31;;;;;;;5.65;5.05;;;26.50;99.90;;;;;;5031105;28;20648;-60
2021/07/03 05:22:58;;;;;;;5.47;4.82;;;27.20;97.70;;;;;;5031394;28;20585;-60
2021/07/03 05:25:25;;;;;;;7.38;4.95;;;27.50;95.90;;;;;;5031134;28;20230;-60
2021/07/03 05:27:52;;;;;;;7.05;6.30;;;27.70;94.80;;;;;;5031215;28;20586;-59
2021/07/03 05:30:19;;;;;;;5.68;4.82;;;28.00;93.10;;;;;;5031270;28;20218;-60
2021/07/03 05:32:45;;;;;;;6.25;4.63;;;28.40;91.50;;;;;;5031198;28;20701;-60
2021/07/03 05:35:14;;;;;;;5.82;4.97;;;28.60;90.50;;;;;;5030725;28;20222;-59
2021/07/03 05:37:43;;;;;;;7.90;4.82;;;28.70;88.90;;;;;;5031107;28;20241;-60
2021/07/03 05:40:12;;;;;;;6.50;4.70;;;29.10;87.40;;;;;;5031191;28;20238;-61
2021/07/03 05:42:39;;;;;;;5.22;4.22;;;29.50;84.70;;;;;;5031027;28;20249;-59
2021/07/03 05:45:07;;;;;;;5.15;4.65;;;30.00;81.10;;;;;;5030860;28;20241;-59
2021/07/03 05:47:34;;;;;;;6.07;4.55;;;30.50;77.60;;;;;;5030729;28;20202;-59
2021/07/03 05:50:01;;;;;;;5.40;4.68;;;31.10;74.60;;;;;;5030955;28;20210;-59
2021/07/03 05:52:27;;;;;;;5.32;4.70;;;31.20;72.70;;;;;;5031065;28;20213;-60
2021/07/03 05:54:56;;;;;;;4.63;4.22;;;31.70;70.50;;;;;;5030763;28;20647;-60
2021/07/03 05:57:24;;;;;;;5.43;4.85;;;32.30;68.30;;;;;;5031648;28;20221;-60
2021/07/03 05:59:51;;;;;;;10.88;6.60;;;33.00;66.10;;;;;;5030680;28;20206;-59
2021/07/03 06:02:18;;;;;;;8.02;5.30;;;33.30;63.60;;;;;;5030595;28;20592;-60
2021/07/03 06:04:45;;;;;;;6.90;4.68;;;33.60;62.70;;;;;;5030558;28;20234;-60
2021/07/03 06:07:11;;;;;;;7.40;4.85;;;34.00;60.40;;;;;;5031109;28;20213;-60
2021/07/03 06:09:38;;;;;;;4.85;4.35;;;34.60;58.70;;;;;;5034879;28;20214;-60
2021/07/03 06:12:07;;;;;;;6.47;4.47;;;35.30;57.10;;;;;;5034901;28;20235;-60
2021/07/03 06:14:33;;;;;;;5.55;4.20;;;35.60;55.80;;;;;;5034366;28;20256;-60
2021/07/03 06:17:00;;;;;;;5.80;4.13;;;35.80;54.40;;;;;;5034754;28;20214;-60
2021/07/03 06:19:27;;;;;;;5.40;4.47;;;36.30;53.30;;;;;;5034768;28;20236;-60
2021/07/03 06:21:53;;;;;;;5.63;3.90;;;36.60;51.70;;;;;;5034659;28;20268;-60
2021/07/03 06:24:20;;;;;;;4.43;4.03;;;36.90;51.20;;;;;;5034519;28;20234;-60
2021/07/03 06:26:47;;;;;;;8.13;4.35;;;37.10;50.60;;;;;;5034465;28;20670;-60
2021/07/03 06:29:15;;;;;;;4.93;4.43;;;37.20;49.80;;;;;;5034329;28;20240;-60
2021/07/03 06:31:42;;;;;;;7.03;4.15;;;37.30;49.20;;;;;;5034715;28;20305;-60
2021/07/03 06:34:08;;;;;;;4.47;4.03;;;37.40;49.20;;;;;;5034540;28;20226;-61
2021/07/03 06:36:35;;;;;;;5.05;4.40;;;37.70;48.70;;;;;;5034415;28;20210;-60
2021/07/03 06:39:03;;;;;;;4.88;4.38;;;37.90;47.70;;;;;;5034171;28;20226;-60
2021/07/03 06:41:29;;;;;;;5.25;4.22;;;38.00;46.90;;;;;;5033986;28;20293;-60
2021/07/03 06:43:56;;;;;;;4.55;4.10;;;38.10;47.00;;;;;;5033916;28;20234;-61
2021/07/03 06:46:24;;;;;;;4.57;4.18;;;38.50;46.70;;;;;;5034205;28;20206;-60
2021/07/03 06:48:51;;;;;;;4.47;3.92;;;38.80;46.10;;;;;;5034023;28;20198;-59
2021/07/03 06:51:17;;;;;;;4.38;3.85;;;39.10;45.20;;;;;;5034060;28;20202;-59
2021/07/03 06:53:44;;;;;;;4.93;4.03;;;39.60;44.30;;;;;;5033934;28;20482;-60
2021/07/03 06:56:11;;;;;;;5.63;4.07;;;39.70;43.90;;;;;;5034032;28;20206;-60
2021/07/03 06:58:37;;;;;;;6.70;3.95;;;40.10;43.50;;;;;;5033532;28;20222;-60
2021/07/03 07:01:04;;;;;;;5.28;3.90;;;40.50;42.40;;;;;;5033670;28;20685;-62
2021/07/03 07:03:32;;;;;;;4.85;4.05;;;40.70;42.20;;;;;;5033749;28;20203;-60
2021/07/03 07:05:59;;;;;;;6.07;4.00;;;40.80;42.30;;;;;;5033705;28;20245;-61
2021/07/03 07:08:25;;;;;;;16.58;14.88;;;41.00;41.60;;;;;;5033659;28;20214;-60
2021/07/03 07:10:52;;;;;;;5.13;3.90;;;41.00;41.20;;;;;;5033658;28;20202;-60
2021/07/03 07:13:19;;;;;;;5.15;3.80;;;40.70;41.40;;;;;;5033523;28;20674;-60
2021/07/03 07:15:45;;;;;;;5.30;3.78;;;40.90;41.20;;;;;;5034124;28;20253;-62
2021/07/03 07:18:12;;;;;;;4.75;3.67;;;40.80;40.90;;;;;;5034189;28;20227;-61
2021/07/03 07:20:40;;;;;;;6.53;4.35;;;40.70;41.20;;;;;;5033351;28;20210;-62
2021/07/03 07:23:07;;;;;;;4.78;4.15;;;40.90;40.70;;;;;;5034091;28;20229;-62
2021/07/03 07:25:33;;;;;;;5.38;3.92;;;41.20;40.40;;;;;;5033459;28;20231;-61
2021/07/03 07:28:00;;;;;;;4.88;3.90;;;41.30;40.10;;;;;;5033659;28;20202;-60
2021/07/03 07:30:27;;;;;;;4.30;3.90;;;41.80;39.60;;;;;;5033671;28;20210;-61
2021/07/03 07:32:53;;;;;;;5.40;4.03;;;41.70;39.50;;;;;;5033413;28;20205;-61
2021/07/03 07:35:20;;;;;;;5.93;3.85;;;40.60;40.40;;;;;;5033343;28;20230;-62
2021/07/03 07:37:49;;;;;;;4.10;3.70;;;40.00;41.30;;;;;;5033625;28;20255;-62
2021/07/03 07:40:17;;;;;;;5.35;4.35;;;40.80;41.70;;;;;;5033739;28;20205;-63
2021/07/03 07:42:43;;;;;;;5.13;4.05;;;40.60;40.20;;;;;;5033592;28;20206;-63
2021/07/03 07:45:11;;;;;;;4.88;4.38;;;41.00;40.00;;;;;;5033297;28;20221;-66
2021/07/03 07:47:38;;;;;;;4.63;3.97;;;41.00;39.90;;;;;;5033083;28;20225;-61
2021/07/03 07:50:06;;;;;;;4.32;3.92;;;40.70;39.70;;;;;;5033078;28;20213;-61
2021/07/03 07:52:34;;;;;;;4.35;3.65;;;40.50;39.80;;;;;;5032879;28;20277;-62
2021/07/03 07:55:02;;;;;;;4.90;4.40;;;40.20;38.80;;;;;;5032721;28;20229;-62
2021/07/03 07:57:29;;;;;;;7.57;4.05;;;39.30;41.80;;;;;;5032777;28;20213;-61
2021/07/03 07:59:55;;;;;;;6.95;4.50;;;39.20;42.70;;;;;;5032390;28;20666;-61
2021/07/03 08:02:22;;;;;;;5.97;4.43;;;39.60;42.10;;;;;;5032779;28;20229;-62
2021/07/03 08:04:49;;;;;;;5.43;3.90;;;39.90;41.10;;;;;;5032536;28;20234;-62
2021/07/03 08:07:15;;;;;;;4.50;3.60;;;40.90;39.10;;;;;;5032572;28;20477;-62
2021/07/03 08:09:44;;;;;;;4.72;3.88;;;41.50;38.10;;;;;;5032407;28;20198;-62
2021/07/03 08:12:12;;;;;;;5.20;3.85;;;41.70;37.70;;;;;;5032761;28;20648;-63
2021/07/03 08:14:39;;;;;;;6.30;5.70;;;41.90;37.60;;;;;;5032383;28;20261;-61
2021/07/03 08:17:06;;;;;;;7.43;4.18;;;42.10;37.50;;;;;;5032782;28;20216;-61
2021/07/03 08:19:33;;;;;;;5.78;4.40;;;42.40;37.20;;;;;;5032213;28;20241;-61
2021/07/03 08:22:00;;;;;;;5.32;3.53;;;42.10;37.20;;;;;;5032534;28;20222;-61
2021/07/03 08:24:28;;;;;;;4.78;4.00;;;42.00;37.50;;;;;;5032083;28;20794;-61
2021/07/03 08:26:54;;;;;;;5.40;4.13;;;41.90;37.90;;;;;;5032203;28;20688;-61
2021/07/03 08:29:22;;;;;;;5.03;3.55;;;41.60;37.90;;;;;;5032161;28;20587;-61
2021/07/03 08:31:49;;;;;;;4.50;3.97;;;40.80;38.80;;;;;;5031308;28;20209;-61
2021/07/03 08:34:16;;;;;;;4.43;4.03;;;40.20;39.50;;;;;;5031878;28;20226;-61
2021/07/03 08:36:43;;;;;;;5.47;4.00;;;39.20;40.10;;;;;;5032441;28;20206;-61
2021/07/03 08:39:09;;;;;;;4.20;3.80;;;38.40;41.00;;;;;;5032216;28;20760;-61
2021/07/03 08:41:37;;;;;;;4.40;3.58;;;38.20;41.10;;;;;;5032754;28;20218;-62
2021/07/03 08:44:04;;;;;;;4.38;3.97;;;38.10;40.70;;;;;;5032177;28;20226;-61
2021/07/03 08:46:32;;;;;;;4.95;3.88;;;38.50;40.10;;;;;;5032325;28;20218;-62
2021/07/03 08:48:59;;;;;;;4.25;3.85;;;39.00;40.00;;;;;;5032090;28;20209;-61
2021/07/03 08:51:26;;;;;;;7.20;3.78;;;39.10;39.10;;;;;;5032199;28;20264;-60
2021/07/03 08:53:52;;;;;;;4.70;3.63;;;38.70;39.00;;;;;;5032112;28;20490;-60
2021/07/03 08:56:20;;;;;;;4.32;3.90;;;38.10;40.50;;;;;;5031980;28;20210;-60
2021/07/03 08:58:46;;;;;;;4.60;4.18;;;37.00;41.20;;;;;;5031752;28;20226;-60
2021/07/03 09:01:13;;;;;;;3.85;3.50;;;35.80;42.70;;;;;;5031511;28;20206;-60
2021/07/03 09:03:51;;;;;;;4.82;3.90;;;34.60;43.70;;;;;;5031108;28;20584;-61
2021/07/03 09:06:18;;;;;;;4.43;3.97;;;33.00;45.90;;;;;;5031694;28;20213;-62
2021/07/03 09:08:52;;;;;;;4.93;4.28;;;31.40;48.00;;;;;;5031390;28;20214;-60
2021/07/03 09:11:19;;;;;;;4.30;3.90;;;30.20;50.60;;;;;;5031794;28;20210;-60
2021/07/03 09:13:46;;;;;;;4.22;3.83;;;29.50;51.40;;;;;;5031182;28;20650;-61
2021/07/03 09:16:15;;;;;;;4.25;3.85;;;28.80;53.20;;;;;;5031374;28;20214;-61
2021/07/03 09:18:54;;;;;;;5.63;4.13;;;28.20;53.40;;;;;;5031303;28;20230;-61
2021/07/03 09:21:21;;;;;;;6.22;4.07;;;27.70;55.40;;;;;;5031522;28;20210;-62
2021/07/03 09:23:48;;;;;;;4.60;3.90;;;27.30;55.00;;;;;;5031077;28;20584;-62
2021/07/03 09:26:15;;;;;;;4.53;4.00;;;26.90;55.60;;;;;;5031195;28;20206;-62
2021/07/03 09:28:44;;;;;;;4.50;4.10;;;26.70;55.90;;;;;;5030955;28;20206;-62
2021/07/03 09:31:15;;;;;;;4.80;3.97;;;26.60;56.70;;;;;;5031344;28;20268;-63
2021/07/03 09:33:49;;;;;;;6.43;4.53;;;26.50;58.00;;;;;;5030831;28;20670;-62
2021/07/03 09:36:24;;;;;;;8.00;4.82;;;26.30;57.90;;;;;;5031293;28;20206;-63
2021/07/03 09:38:52;;;;;;;10.02;7.50;;;26.20;58.20;;;;;;5030575;28;20711;-61
2021/07/03 09:41:20;;;;;;;6.25;4.30;;;26.10;59.60;;;;;;5030755;28;20697;-60
2021/07/03 09:44:01;;;;;;;4.82;4.05;;;26.10;60.40;;;;;;5030661;28;20288;-68
2021/07/03 09:46:29;;;;;;;5.47;3.78;;;26.20;59.70;;;;;;5031347;28;20206;-62
2021/07/03 09:48:59;;;;;;;4.72;4.10;;;26.10;60.30;;;;;;5031394;28;20206;-61
2021/07/03 09:51:28;;;;;;;7.50;4.90;;;26.10;60.10;;;;;;5030850;28;20206;-62
2021/07/03 09:54:11;;;;;;;4.95;4.28;;;26.00;61.00;;;;;;5030466;28;20230;-62
2021/07/03 09:56:40;;;;;;;6.95;4.28;;;25.90;61.30;;;;;;5030896;28;20206;-61
2021/07/03 09:59:07;;;;;;;6.38;4.47;;;26.00;61.90;;;;;;5030310;28;20218;-61
2021/07/03 10:01:34;;;;;;;4.97;4.32;;;26.30;61.60;;;;;;5030742;28;20202;-62
2021/07/03 10:06:44;;;;;;;5.20;4.70;;;26.70;59.70;;;;;;5050002;28;20224;-59
2021/07/03 10:09:19;;;;;;;4.95;4.22;;;26.80;59.70;;;;;;5051600;28;20204;-59
2021/07/03 10:11:50;;;;;;;6.35;4.53;;;27.00;58.40;;;;;;5051424;28;20209;-59
2021/07/03 10:14:18;;;;;;;5.10;4.25;;;27.10;58.40;;;;;;5050995;28;20201;-58
2021/07/03 10:16:46;;;;;;;5.47;3.75;;;27.10;58.40;;;;;;5051499;28;20205;-59
2021/07/03 10:19:14;;;;;;;7.07;4.30;;;26.90;57.60;;;;;;5051256;28;20253;-60
2021/07/03 10:21:44;;;;;;;4.68;3.95;;;27.20;57.10;;;;;;5051368;28;20626;-59
2021/07/03 10:24:18;;;;;;;5.80;4.20;;;27.10;58.10;;;;;;5050930;28;20217;-61
2021/07/03 10:26:46;;;;;;;4.40;4.00;;;26.90;58.30;;;;;;5050900;28;20223;-59
2021/07/03 10:29:17;;;;;;;5.05;4.18;;;26.90;57.90;;;;;;5050702;28;20661;-60
2021/07/03 10:31:44;;;;;;;4.43;4.03;;;26.70;58.20;;;;;;5051024;28;20232;-58
2021/07/03 10:34:11;;;;;;;4.97;4.15;;;26.50;58.90;;;;;;5052372;28;20210;-58
2021/07/03 10:36:38;;;;;;;4.47;3.90;;;26.40;59.30;;;;;;5053004;28;20209;-58
2021/07/03 10:39:06;;;;;;;4.57;3.78;;;26.40;60.10;;;;;;5051125;28;20226;-58
2021/07/03 10:41:35;;;;;;;4.35;3.72;;;26.60;59.60;;;;;;5051462;28;20224;-58
2021/07/03 10:44:07;;;;;;;6.50;4.40;;;26.70;59.30;;;;;;5051135;28;20206;-59
2021/07/03 10:46:36;;;;;;;5.03;3.63;;;26.80;59.50;;;;;;5051355;28;20209;-59
2021/07/03 10:49:05;;;;;;;4.82;3.83;;;27.10;58.40;;;;;;5050832;28;20202;-60
2021/07/03 10:51:35;;;;;;;5.97;4.25;;;27.30;56.70;;;;;;5050794;28;20205;-59
2021/07/03 10:54:12;;;;;;;4.55;3.67;;;27.50;56.90;;;;;;5050683;28;20205;-59
2021/07/03 10:56:49;;;;;;;5.60;3.80;;;27.70;56.70;;;;;;5054508;28;20201;-60
2021/07/03 10:59:17;;;;;;;4.22;3.83;;;27.90;56.30;;;;;;5054620;28;20222;-61
2021/07/03 11:01:44;;;;;;;4.47;3.95;;;28.00;56.60;;;;;;5054448;28;20612;-59
2021/07/03 11:04:16;;;;;;;7.22;3.70;;;28.10;56.10;;;;;;5054739;28;20205;-60
2021/07/03 11:06:44;;;;;;;4.65;3.70;;;28.20;55.70;;;;;;5054934;28;20209;-59
2021/07/03 11:09:21;;;;;;;4.10;3.70;;;28.30;55.40;;;;;;5054291;28;20205;-59
2021/07/03 11:11:48;;;;;;;4.05;3.75;;;28.40;54.80;;;;;;5054664;28;20213;-59
2021/07/03 11:14:18;;;;;;;5.50;3.40;;;28.20;55.00;;;;;;5054179;28;20201;-59
2021/07/03 11:16:50;;;;;;;4.20;3.38;;;28.10;55.00;;;;;;5054275;28;20201;-60
2021/07/03 11:19:22;;;;;;;5.03;3.83;;;28.00;55.30;;;;;;5054406;28;20226;-58
2021/07/03 11:21:48;;;;;;;5.20;3.58;;;27.90;55.50;;;;;;5054343;28;20216;-58
2021/07/03 11:24:15;;;;;;;6.43;3.55;;;27.80;55.50;;;;;;5054205;28;20684;-57
2021/07/03 11:26:43;;;;;;;3.92;3.60;;;27.90;55.90;;;;;;5053546;28;20213;-58
2021/07/03 11:29:10;;;;;;;3.65;3.33;;;28.00;55.30;;;;;;5053782;28;20225;-59
2021/07/03 11:31:37;;;;;;;3.42;3.10;;;28.00;54.90;;;;;;5054248;28;20668;-58
2021/07/03 11:34:03;;;;;;;7.15;3.80;;;28.10;55.40;;;;;;5054049;28;20239;-58
2021/07/03 11:36:30;;;;;;;3.97;3.58;;;28.20;54.60;;;;;;5053794;28;20205;-60
2021/07/03 11:38:57;;;;;;;4.28;3.42;;;28.30;54.40;;;;;;5053582;28;20221;-61
2021/07/03 11:41:25;;;;;;;4.80;3.47;;;28.50;54.10;;;;;;5053628;28;20206;-58
2021/07/03 11:44:00;;;;;;;4.75;4.07;;;28.60;55.20;;;;;;5053411;28;20208;-59
2021/07/03 11:46:27;;;;;;;4.38;3.67;;;28.50;55.10;;;;;;5053649;28;20551;-59
2021/07/03 11:48:54;;;;;;;4.53;3.80;;;28.50;54.70;;;;;;5053405;28;20205;-64
2021/07/03 11:51:21;;;;;;;5.55;3.72;;;28.60;55.10;;;;;;5053601;28;20213;-59
2021/07/03 11:53:52;;;;;;;4.53;3.47;;;28.60;54.50;;;;;;5053594;28;20237;-60
2021/07/03 11:56:19;;;;;;;5.15;3.33;;;28.60;54.10;;;;;;5053786;28;20226;-60
2021/07/03 11:58:49;;;;;;;3.60;3.30;;;28.40;53.70;;;;;;5053669;28;20216;-59
2021/07/03 12:01:19;;;;;;;6.80;3.50;;;28.30;53.80;;;;;;5053618;28;20209;-60
2021/07/03 12:03:48;;;;;;;3.40;3.10;;;28.00;53.90;;;;;;5053601;28;20210;-60
2021/07/03 12:06:19;;;;;;;4.47;2.92;;;27.90;53.90;;;;;;5052291;28;20243;-59
2021/07/03 12:08:48;;;;;;;4.45;3.50;;;27.80;55.00;;;;;;5052327;28;20210;-58
2021/07/03 12:11:16;;;;;;;4.00;3.30;;;27.80;54.60;;;;;;5053086;28;20553;-59
2021/07/03 12:13:47;;;;;;;4.50;3.90;;;27.70;55.00;;;;;;5052755;28;20214;-59
2021/07/03 12:16:15;;;;;;;3.35;2.92;;;27.70;53.90;;;;;;5052491;28;20712;-59
2021/07/03 12:18:46;;;;;;;3.95;3.17;;;27.70;54.10;;;;;;5052414;28;20206;-60
2021/07/03 12:21:15;;;;;;;4.80;3.47;;;27.60;55.00;;;;;;5052577;28;20224;-59
2021/07/03 12:23:52;;;;;;;5.25;4.70;;;27.70;55.40;;;;;;5052577;28;20224;-59
2021/07/03 12:26:22;;;;;;;6.65;4.05;;;27.80;54.70;;;;;;5052711;28;20241;-59
2021/07/03 12:28:53;;;;;;;4.35;3.70;;;28.10;54.20;;;;;;5052551;28;20252;-59
2021/07/03 12:31:24;;;;;;;4.18;3.30;;;28.30;54.00;;;;;;5052643;28;20209;-59
2021/07/03 12:34:06;;;;;;;4.35;3.42;;;28.40;54.50;;;;;;5052204;28;20212;-58
2021/07/03 12:36:34;;;;;;;4.03;3.60;;;28.50;54.80;;;;;;5052320;28;20680;-57
2021/07/03 12:39:10;;;;;;;7.32;6.45;;;28.40;54.00;;;;;;5052220;28;20213;-58
2021/07/03 12:41:37;;;;;;;3.50;3.20;;;28.30;53.90;;;;;;5052258;28;20212;-58
2021/07/03 12:44:04;;;;;;;5.00;4.30;;;28.40;53.30;;;;;;5051805;28;20217;-58
2021/07/03 12:46:32;;;;;;;4.40;3.40;;;28.30;54.30;;;;;;5052179;28;20696;-58
2021/07/03 12:49:01;;;;;;;3.92;3.63;;;28.20;54.00;;;;;;5051876;28;20217;-58
2021/07/03 12:51:31;;;;;;;4.20;3.70;;;28.10;54.30;;;;;;5051961;28;20205;-59